Eagles Mere, Pennsylvania
Current Conditions -  °F | °C
As of 7:54 AM on Thursday 23 Oct 2014 (Local Time) from KIPT Reporting Station
Overcast Overcast  
Wind Chill: 51°   Ceiling: 2500
Heat Index: 51°   Visibility: 10mi
Dew Point: 41°   Wind: 9mph
Humidity: 68%   Direction: 320°NW
Pressure: 29.92"   Gusts: 21mph
Location:  41.41°N, 76.58°W
Report Text: KIPT 231154Z 32008G18KT 10SM OVC025 11/05 A2992 RMK AO2 SLP133 60000 T01060050 10111 20100 53001
Loading
Personal Weather Stations






























Interactive Weather Map
Tropical Storm Tracking
New forecast layout! Learn more

10-Day Weather Forecast

Advertisements
Track Severe Weather on mobile